Time;durP1;ratioP1;P1;durP2;ratioP2;P2;SDS_P1;SDS_P2;PMS_P1;PMS_P2;Temp;Humidity;BMP_temperature;BMP_pressure;BME280_temperature;BME280_humidity;BME280_pressure;Samples;Min_cycle;Max_cycle;Signal;HPM_P1;HPM_P2
2023/04/09 00:02:16;;;;;;;52.88;27.20;;;8.60;99.90;;;;;;6365301;22;20044;-85
2023/04/09 00:04:41;;;;;;;57.58;29.00;;;8.50;99.90;;;;;;6365129;22;20464;-84
2023/04/09 00:07:07;;;;;;;56.50;28.33;;;8.60;99.90;;;;;;6336136;22;20635;-84
2023/04/09 00:09:33;;;;;;;57.30;28.17;;;8.60;99.90;;;;;;6364621;22;20060;-83
2023/04/09 00:11:59;;;;;;;62.42;28.48;;;8.60;99.90;;;;;;6364375;22;20025;-84
2023/04/09 00:14:24;;;;;;;59.55;26.42;;;8.60;99.90;;;;;;6364963;22;20014;-84
2023/04/09 00:16:50;;;;;;;66.18;28.77;;;8.60;99.90;;;;;;6336266;22;20696;-84
2023/04/09 00:19:16;;;;;;;55.70;27.08;;;8.60;99.90;;;;;;6335756;22;20022;-83
2023/04/09 00:21:42;;;;;;;56.05;28.15;;;8.60;99.90;;;;;;6335236;22;20026;-83
2023/04/09 00:24:07;;;;;;;59.80;26.55;;;8.60;99.90;;;;;;6364902;22;20025;-85
2023/04/09 00:26:33;;;;;;;57.08;28.13;;;8.60;99.90;;;;;;6365408;22;20014;-84
2023/04/09 00:28:59;;;;;;;53.53;25.50;;;8.60;99.90;;;;;;6336450;22;20075;-86
2023/04/09 00:31:25;;;;;;;60.22;27.25;;;8.60;99.90;;;;;;6364777;22;20010;-85
2023/04/09 00:33:50;;;;;;;55.15;25.52;;;8.60;99.90;;;;;;6336071;22;20068;-83
2023/04/09 00:36:16;;;;;;;53.78;26.38;;;8.50;99.90;;;;;;6335822;22;20018;-85
2023/04/09 00:38:42;;;;;;;47.75;25.30;;;8.50;99.90;;;;;;6364194;22;20089;-84
2023/04/09 00:41:07;;;;;;;55.17;25.90;;;8.50;99.90;;;;;;6364047;22;20157;-84
2023/04/09 00:43:33;;;;;;;56.25;26.75;;;8.50;99.90;;;;;;6335990;22;20325;-84
2023/04/09 00:45:59;;;;;;;55.08;26.65;;;8.50;99.90;;;;;;6329735;22;20104;-84
2023/04/09 00:48:25;;;;;;;57.70;28.52;;;8.50;99.90;;;;;;6330847;22;20038;-84
2023/04/09 00:50:51;;;;;;;53.63;26.58;;;8.50;99.90;;;;;;6304262;22;20029;-84
2023/04/09 00:53:17;;;;;;;61.67;26.58;;;8.50;99.90;;;;;;6330313;22;20042;-85
2023/04/09 00:55:44;;;;;;;53.95;27.25;;;8.50;99.90;;;;;;6330623;22;20358;-83
2023/04/09 00:58:10;;;;;;;57.42;28.60;;;8.50;99.90;;;;;;6332095;22;20437;-82
2023/04/09 01:00:36;;;;;;;53.90;27.67;;;8.50;99.90;;;;;;6330013;22;20030;-82
2023/04/09 01:03:04;;;;;;;55.97;27.02;;;8.50;99.90;;;;;;6330726;22;20054;-84
2023/04/09 01:05:53;;;;;;;53.80;26.98;;;8.40;99.90;;;;;;6329373;22;20066;-82
2023/04/09 01:08:34;;;;;;;54.25;25.63;;;8.50;99.90;;;;;;6332859;22;20026;-84
2023/04/09 01:11:28;;;;;;;56.50;26.15;;;8.50;99.90;;;;;;6330421;22;20019;-83
2023/04/09 01:14:35;;;;;;;54.92;26.88;;;8.40;99.90;;;;;;6332972;22;20314;-84
2023/04/09 01:17:14;;;;;;;55.80;27.50;;;8.40;99.90;;;;;;6297186;22;20160;-83
2023/04/09 01:19:46;;;;;;;52.45;26.13;;;8.40;99.90;;;;;;6332113;22;20360;-84
2023/04/09 01:22:40;;;;;;;50.72;24.75;;;8.40;99.90;;;;;;6331815;22;20448;-85
2023/04/09 01:25:47;;;;;;;58.95;28.13;;;8.40;99.90;;;;;;6330412;22;20043;-84
2023/04/09 01:28:20;;;;;;;58.15;25.73;;;8.50;99.90;;;;;;6296842;22;20351;-84
2023/04/09 01:30:51;;;;;;;56.53;26.50;;;8.50;99.90;;;;;;6332694;22;20011;-84
2023/04/09 01:33:18;;;;;;;56.55;27.55;;;8.50;99.90;;;;;;6331779;22;20443;-84
2023/04/09 01:35:49;;;;;;;58.70;26.92;;;8.50;99.90;;;;;;6330323;22;20022;-83
2023/04/09 01:38:18;;;;;;;51.67;27.40;;;8.50;99.90;;;;;;6332549;22;20475;-84
2023/04/09 01:40:44;;;;;;;51.85;27.45;;;8.50;99.90;;;;;;6332280;22;20283;-84
2023/04/09 01:43:12;;;;;;;53.38;27.02;;;8.50;99.90;;;;;;6333235;22;20014;-85
2023/04/09 01:45:39;;;;;;;57.50;27.50;;;8.60;99.90;;;;;;6340554;22;20160;-84
2023/04/09 01:48:05;;;;;;;56.88;26.70;;;8.60;99.90;;;;;;6364550;22;20425;-84
2023/04/09 01:50:32;;;;;;;56.47;27.27;;;8.60;99.90;;;;;;6337347;22;20090;-84
2023/04/09 01:53:00;;;;;;;55.75;28.45;;;8.50;99.90;;;;;;6366330;22;20023;-85
2023/04/09 01:55:26;;;;;;;54.70;26.33;;;8.50;99.90;;;;;;6338607;22;20017;-84
2023/04/09 01:57:51;;;;;;;54.92;24.80;;;8.40;99.90;;;;;;6366779;22;20014;-83
2023/04/09 02:00:18;;;;;;;54.25;25.27;;;8.50;99.90;;;;;;6365786;22;20026;-83
2023/04/09 02:03:00;;;;;;;51.95;26.55;;;8.50;99.90;;;;;;6337333;22;20026;-84
2023/04/09 02:05:28;;;;;;;;;;;8.40;99.90;;;;;;6338674;22;20022;-84
2023/04/09 02:07:56;;;;;;;52.92;26.13;;;8.40;99.90;;;;;;6366504;22;20247;-83
2023/04/09 02:10:30;;;;;;;59.28;27.98;;;8.40;99.90;;;;;;6337665;22;20022;-84
2023/04/09 02:12:59;;;;;;;55.20;26.90;;;8.40;99.90;;;;;;6337803;22;20018;-85
2023/04/09 02:15:27;;;;;;;58.03;26.17;;;8.40;99.90;;;;;;6338294;22;20041;-84
2023/04/09 02:17:53;;;;;;;55.95;28.58;;;8.40;99.90;;;;;;6338260;22;20064;-84
2023/04/09 02:20:19;;;;;;;54.20;27.77;;;8.40;99.90;;;;;;6337660;22;20521;-84
2023/04/09 02:22:45;;;;;;;54.33;26.23;;;8.40;99.90;;;;;;6336648;22;20018;-85
2023/04/09 02:25:11;;;;;;;52.38;26.90;;;8.40;99.90;;;;;;6337333;22;20087;-85
2023/04/09 02:27:37;;;;;;;59.75;25.85;;;8.40;99.90;;;;;;6365272;22;20031;-85
2023/04/09 02:30:03;;;;;;;54.05;26.95;;;8.40;99.90;;;;;;6365035;22;20075;-85
2023/04/09 02:32:29;;;;;;;55.80;27.00;;;8.30;99.90;;;;;;6337702;22;20079;-85
2023/04/09 02:34:54;;;;;;;54.85;27.58;;;8.30;99.90;;;;;;6338409;22;20014;-83
2023/04/09 02:37:20;;;;;;;53.33;26.23;;;8.30;99.90;;;;;;6337669;22;20022;-83
2023/04/09 02:39:46;;;;;;;48.90;24.65;;;8.30;99.90;;;;;;6337559;22;20334;-84
2023/04/09 02:42:11;;;;;;;51.63;25.23;;;8.30;99.90;;;;;;6336860;22;20038;-83
2023/04/09 02:44:37;;;;;;;53.63;26.63;;;8.30;99.90;;;;;;6336617;22;20052;-85
2023/04/09 02:47:03;;;;;;;51.65;25.92;;;8.30;99.90;;;;;;6336596;22;20085;-84
2023/04/09 02:49:28;;;;;;;51.92;24.23;;;8.20;99.90;;;;;;6336770;22;20060;-84
2023/04/09 02:51:54;;;;;;;51.22;25.10;;;8.30;99.90;;;;;;6365231;22;20022;-84
2023/04/09 02:54:20;;;;;;;51.67;24.35;;;8.30;99.90;;;;;;6364740;22;20014;-84
2023/04/09 02:56:45;;;;;;;50.80;23.77;;;8.30;99.90;;;;;;6364993;22;20270;-85
2023/04/09 02:59:11;;;;;;;51.03;25.67;;;8.30;99.90;;;;;;6336573;22;20019;-84
2023/04/09 03:01:37;;;;;;;48.90;25.35;;;8.30;99.90;;;;;;6336371;22;20026;-83
2023/04/09 03:04:02;;;;;;;51.28;24.75;;;8.30;99.90;;;;;;6336622;22;20295;-84
2023/04/09 03:06:28;;;;;;;53.85;25.20;;;8.30;99.90;;;;;;6336967;22;20041;-84
2023/04/09 03:08:54;;;;;;;52.45;24.73;;;8.20;99.90;;;;;;6336036;22;20045;-83
2023/04/09 03:11:19;;;;;;;46.05;23.75;;;8.20;99.90;;;;;;6336119;22;20130;-83
2023/04/09 03:13:45;;;;;;;44.85;22.48;;;8.20;99.90;;;;;;6337164;22;20113;-85
2023/04/09 03:16:11;;;;;;;54.13;24.33;;;8.20;99.90;;;;;;6336710;22;20026;-84
2023/04/09 03:18:36;;;;;;;53.67;25.88;;;8.20;99.90;;;;;;6336578;22;20038;-84
2023/04/09 03:21:06;;;;;;;52.72;26.20;;;8.20;99.90;;;;;;6364078;22;20105;-84
2023/04/09 03:23:33;;;;;;;51.25;24.77;;;8.20;99.90;;;;;;6364085;22;20041;-83
2023/04/09 03:26:04;;;;;;;49.75;22.88;;;8.20;99.90;;;;;;6337218;22;20014;-84
2023/04/09 03:28:30;;;;;;;53.83;25.77;;;8.20;99.90;;;;;;6337332;22;20318;-85
2023/04/09 03:30:56;;;;;;;52.70;25.20;;;8.20;99.90;;;;;;6336598;22;20022;-84
2023/04/09 03:33:22;;;;;;;49.38;25.23;;;8.20;99.90;;;;;;6336200;22;20026;-84
2023/04/09 03:35:48;;;;;;;54.08;25.20;;;8.20;99.90;;;;;;6336762;22;20093;-84
2023/04/09 03:38:13;;;;;;;49.00;25.52;;;8.20;99.90;;;;;;6337024;22;20057;-85
2023/04/09 03:40:40;;;;;;;51.67;24.48;;;8.20;99.90;;;;;;6364753;22;20030;-84
2023/04/09 03:43:06;;;;;;;51.00;24.70;;;8.20;99.90;;;;;;6336780;22;20124;-84
2023/04/09 03:45:32;;;;;;;50.83;25.08;;;8.20;99.90;;;;;;6336208;22;20464;-83
2023/04/09 03:47:57;;;;;;;53.35;24.70;;;8.20;99.90;;;;;;6336095;22;20026;-84
2023/04/09 03:50:23;;;;;;;51.25;24.63;;;8.20;99.90;;;;;;6335758;22;20037;-84
2023/04/09 03:52:49;;;;;;;49.75;25.50;;;8.10;99.90;;;;;;6336846;22;20045;-85
2023/04/09 03:55:14;;;;;;;46.35;24.73;;;8.20;99.90;;;;;;6365100;22;20117;-85
2023/04/09 03:57:40;;;;;;;50.30;24.38;;;8.20;99.90;;;;;;6365351;22;20026;-85
2023/04/09 04:00:06;;;;;;;49.75;25.33;;;8.20;99.90;;;;;;6336456;22;20091;-85
2023/04/09 04:02:32;;;;;;;50.72;24.45;;;8.10;99.90;;;;;;6336204;22;20467;-84
2023/04/09 04:05:01;;;;;;;47.80;22.85;;;8.20;99.90;;;;;;6336656;22;20071;-85
2023/04/09 04:07:26;;;;;;;51.33;25.35;;;8.10;99.90;;;;;;6365772;22;20032;-85
2023/04/09 04:09:52;;;;;;;47.95;23.67;;;8.20;99.90;;;;;;6337297;22;20053;-84
2023/04/09 04:12:18;;;;;;;46.90;23.42;;;8.20;99.90;;;;;;6337116;22;20022;-84
2023/04/09 04:14:43;;;;;;;54.47;25.52;;;8.20;99.90;;;;;;6365246;22;20021;-85
2023/04/09 04:17:10;;;;;;;49.63;24.70;;;8.10;99.90;;;;;;6336516;22;20085;-85
2023/04/09 04:19:36;;;;;;;50.38;24.40;;;8.20;99.90;;;;;;6310070;22;20082;-83
2023/04/09 04:22:01;;;;;;;52.13;24.88;;;8.20;99.90;;;;;;6336283;22;20030;-85
2023/04/09 04:24:27;;;;;;;50.78;23.88;;;8.10;99.90;;;;;;6364679;22;20022;-85
2023/04/09 04:26:53;;;;;;;48.15;23.20;;;8.10;99.90;;;;;;6336813;22;20097;-84
2023/04/09 04:29:18;;;;;;;43.92;22.65;;;8.10;99.90;;;;;;6364269;22;20019;-86
2023/04/09 04:31:44;;;;;;;48.95;23.88;;;8.10;99.90;;;;;;6335693;22;20141;-84
2023/04/09 04:34:10;;;;;;;39.45;21.00;;;8.10;99.90;;;;;;6335808;22;20449;-83
2023/04/09 04:36:36;;;;;;;45.53;22.05;;;8.10;99.90;;;;;;6335903;22;20018;-84
2023/04/09 04:39:02;;;;;;;43.38;21.88;;;8.20;99.90;;;;;;6363937;22;20015;-85
2023/04/09 04:41:28;;;;;;;41.22;22.65;;;8.10;99.90;;;;;;6336272;22;20022;-86
2023/04/09 04:43:54;;;;;;;48.75;24.10;;;8.20;99.90;;;;;;6309564;22;20037;-86
2023/04/09 04:46:20;;;;;;;50.05;23.73;;;8.10;99.90;;;;;;6335240;22;20014;-85
2023/04/09 04:48:45;;;;;;;44.58;22.58;;;8.10;99.90;;;;;;6363964;22;20026;-86
2023/04/09 04:51:11;;;;;;;44.83;22.50;;;8.10;99.90;;;;;;6335796;22;20353;-86
2023/04/09 04:53:37;;;;;;;48.28;22.00;;;8.10;99.90;;;;;;6335558;22;20030;-86
2023/04/09 04:56:03;;;;;;;43.53;22.38;;;8.20;99.90;;;;;;6336220;22;20046;-85
2023/04/09 04:58:29;;;;;;;43.65;22.92;;;8.10;99.90;;;;;;6337213;22;20049;-85
2023/04/09 05:00:55;;;;;;;45.13;22.20;;;8.10;99.90;;;;;;6336860;22;20053;-86
2023/04/09 05:03:21;;;;;;;41.17;20.48;;;8.20;99.90;;;;;;6336559;22;20352;-86
2023/04/09 05:05:46;;;;;;;42.42;20.90;;;8.10;99.90;;;;;;6363967;22;20113;-86
2023/04/09 05:08:12;;;;;;;42.47;21.98;;;8.10;99.90;;;;;;6336449;22;20099;-85
2023/04/09 05:10:41;;;;;;;41.25;21.35;;;8.20;99.90;;;;;;6363691;22;20025;-86
2023/04/09 05:13:07;;;;;;;44.83;22.67;;;8.20;99.90;;;;;;6364080;22;20018;-86
2023/04/09 05:15:36;;;;;;;45.92;22.90;;;8.10;99.90;;;;;;6363928;22;20049;-86
2023/04/09 05:18:01;;;;;;;44.85;22.75;;;8.20;99.90;;;;;;6364074;22;20435;-86
2023/04/09 05:20:27;;;;;;;47.55;22.58;;;8.20;99.90;;;;;;6336458;22;20205;-87
2023/04/09 05:22:53;;;;;;;43.50;21.85;;;8.20;99.90;;;;;;6365499;22;20014;-87
2023/04/09 05:25:18;;;;;;;40.38;20.85;;;8.10;99.90;;;;;;6337509;22;20018;-84
2023/04/09 05:27:44;;;;;;;44.30;22.95;;;8.20;99.90;;;;;;6338294;22;20025;-85
2023/04/09 05:30:10;;;;;;;43.72;21.67;;;8.20;99.90;;;;;;6366644;22;20350;-84
2023/04/09 05:32:36;;;;;;;42.50;22.17;;;8.20;99.90;;;;;;6337702;22;20029;-85
2023/04/09 05:35:02;;;;;;;42.53;22.60;;;8.10;99.90;;;;;;6366638;22;20010;-84
2023/04/09 05:37:27;;;;;;;42.92;22.70;;;8.20;99.90;;;;;;6337767;22;20343;-85
2023/04/09 05:39:53;;;;;;;46.45;21.10;;;8.10;99.90;;;;;;6365585;22;20330;-83
2023/04/09 05:42:19;;;;;;;42.25;21.75;;;8.20;99.90;;;;;;6366202;22;20007;-85
2023/04/09 05:44:44;;;;;;;44.63;21.80;;;8.10;99.90;;;;;;6366001;22;20105;-87
2023/04/09 05:47:10;;;;;;;42.47;22.38;;;8.10;99.90;;;;;;6337529;22;20022;-85
2023/04/09 05:49:36;;;;;;;48.25;23.33;;;8.10;99.90;;;;;;6366147;22;20067;-86
2023/04/09 05:52:02;;;;;;;44.22;23.15;;;8.10;99.90;;;;;;6365310;22;20503;-85
2023/04/09 05:54:27;;;;;;;44.78;22.65;;;8.10;99.90;;;;;;6336884;22;20022;-86
2023/04/09 05:56:53;;;;;;;44.88;21.48;;;8.20;99.90;;;;;;6337237;22;20073;-86
2023/04/09 05:59:19;;;;;;;44.80;21.73;;;8.20;99.90;;;;;;6337634;22;20041;-86
2023/04/09 06:01:44;;;;;;;43.00;21.95;;;8.20;99.90;;;;;;6337715;22;20018;-86
2023/04/09 06:04:10;;;;;;;44.05;22.27;;;8.20;99.90;;;;;;6338361;22;20130;-86
2023/04/09 06:06:37;;;;;;;45.97;22.75;;;8.20;99.90;;;;;;6365304;22;20026;-85
2023/04/09 06:09:03;;;;;;;50.60;25.00;;;8.20;99.90;;;;;;6336124;22;20148;-84
2023/04/09 06:11:30;;;;;;;45.08;22.52;;;8.20;99.90;;;;;;6335827;22;20093;-85
2023/04/09 06:13:55;;;;;;;41.55;22.05;;;8.20;99.90;;;;;;6365760;22;20344;-84
2023/04/09 06:16:21;;;;;;;50.35;22.92;;;8.20;99.90;;;;;;6337746;22;20026;-84
2023/04/09 06:18:49;;;;;;;46.85;23.70;;;8.20;99.90;;;;;;6364882;22;20020;-86
2023/04/09 06:21:15;;;;;;;49.00;23.67;;;8.20;99.90;;;;;;6336783;22;20668;-85
2023/04/09 06:23:42;;;;;;;52.25;24.88;;;8.20;99.90;;;;;;6337530;22;20022;-87
2023/04/09 06:26:08;;;;;;;52.08;23.13;;;8.20;99.90;;;;;;6338533;22;20022;-86
2023/04/09 06:28:35;;;;;;;54.75;24.73;;;8.30;99.90;;;;;;6337350;22;20022;-84
2023/04/09 06:31:01;;;;;;;53.17;25.50;;;8.30;99.90;;;;;;6336171;22;20025;-82
2023/04/09 06:33:26;;;;;;;49.38;24.17;;;8.40;99.90;;;;;;6335609;22;20018;-82
2023/04/09 06:35:52;;;;;;;50.00;25.58;;;8.50;99.90;;;;;;6363731;22;20030;-72
2023/04/09 06:38:18;;;;;;;57.63;26.25;;;8.60;99.90;;;;;;6363471;22;20056;-73
2023/04/09 06:40:44;;;;;;;47.13;23.45;;;8.60;99.90;;;;;;6363765;22;20022;-73
2023/04/09 06:43:10;;;;;;;47.55;22.13;;;8.70;99.90;;;;;;6363423;22;20082;-74
2023/04/09 06:45:36;;;;;;;51.03;24.83;;;8.80;99.90;;;;;;6361473;22;20029;-72
2023/04/09 06:48:03;;;;;;;46.15;23.77;;;8.70;99.90;;;;;;6333106;22;20456;-72
2023/04/09 06:50:29;;;;;;;49.45;24.10;;;8.80;99.90;;;;;;6333224;22;20026;-73
2023/04/09 06:52:55;;;;;;;53.53;24.80;;;8.80;99.90;;;;;;6334867;22;20144;-74
2023/04/09 06:55:20;;;;;;;46.90;24.08;;;8.90;99.90;;;;;;6363630;22;20166;-74
2023/04/09 06:57:46;;;;;;;49.88;24.20;;;8.90;99.90;;;;;;6309244;22;20367;-72
2023/04/09 07:00:12;;;;;;;51.35;24.33;;;8.90;99.90;;;;;;6335029;22;20023;-73
2023/04/09 07:02:38;;;;;;;46.75;23.95;;;8.90;99.90;;;;;;6335332;22;20053;-73
2023/04/09 07:05:04;;;;;;;48.67;25.23;;;9.00;99.90;;;;;;6335240;22;20014;-73
2023/04/09 07:07:30;;;;;;;50.60;24.27;;;8.90;99.90;;;;;;6335306;22;20093;-74
2023/04/09 07:09:56;;;;;;;47.30;23.98;;;9.00;99.90;;;;;;6335261;22;20027;-73
2023/04/09 07:12:30;;;;;;;50.20;24.63;;;9.00;99.90;;;;;;6335570;22;20014;-73
2023/04/09 07:15:03;;;;;;;48.03;24.35;;;9.10;99.90;;;;;;6363978;22;20025;-73
2023/04/09 07:17:30;;;;;;;50.88;26.02;;;9.10;99.90;;;;;;6335139;22;20162;-75
2023/04/09 07:19:56;;;;;;;52.10;23.75;;;9.10;99.90;;;;;;6335210;22;20015;-75
2023/04/09 07:22:23;;;;;;;52.30;24.40;;;9.10;99.90;;;;;;6335187;22;20111;-75
2023/04/09 07:24:52;;;;;;;53.55;23.92;;;9.20;99.90;;;;;;6363253;22;20126;-75
2023/04/09 07:27:20;;;;;;;52.58;25.02;;;9.20;99.90;;;;;;6363661;22;20109;-74
2023/04/09 07:29:46;;;;;;;52.88;25.50;;;9.20;99.90;;;;;;6308695;22;20021;-73
2023/04/09 07:32:12;;;;;;;53.80;27.45;;;9.20;99.90;;;;;;6363275;22;20076;-73
2023/04/09 07:34:38;;;;;;;50.33;26.15;;;9.20;99.90;;;;;;6335545;22;20384;-81
2023/04/09 07:37:04;;;;;;;54.75;25.80;;;9.70;99.90;;;;;;6335627;22;20014;-84
2023/04/09 07:39:30;;;;;;;53.00;26.70;;;9.50;99.90;;;;;;6335781;22;20097;-83
2023/04/09 07:41:56;;;;;;;52.67;26.70;;;9.40;99.90;;;;;;6310051;22;20022;-83
2023/04/09 07:44:22;;;;;;;58.90;27.40;;;9.30;99.90;;;;;;6363792;22;20033;-83
2023/04/09 07:46:47;;;;;;;52.90;26.05;;;9.30;99.90;;;;;;6363518;22;20026;-83
2023/04/09 07:49:13;;;;;;;57.70;28.67;;;9.20;99.90;;;;;;6336040;22;20022;-83
2023/04/09 07:51:39;;;;;;;60.20;28.65;;;9.20;99.90;;;;;;6364017;22;20449;-83
2023/04/09 07:54:05;;;;;;;56.47;28.02;;;9.30;99.90;;;;;;6364695;22;20021;-83
2023/04/09 07:56:30;;;;;;;53.22;27.85;;;9.40;99.90;;;;;;6364306;22;20498;-84
2023/04/09 07:58:56;;;;;;;53.53;27.27;;;9.50;99.90;;;;;;6364199;22;20520;-83
2023/04/09 08:01:23;;;;;;;56.70;28.45;;;9.60;99.90;;;;;;6335562;22;20030;-83
2023/04/09 08:03:49;;;;;;;59.35;28.83;;;9.50;99.90;;;;;;6335398;22;20135;-84
2023/04/09 08:06:15;;;;;;;55.10;28.80;;;9.50;99.90;;;;;;6363561;22;20568;-82
2023/04/09 08:08:42;;;;;;;51.22;27.27;;;9.60;99.90;;;;;;6363947;22;20022;-83
2023/04/09 08:11:07;;;;;;;52.75;27.77;;;9.70;99.90;;;;;;6363593;22;20014;-83
2023/04/09 08:13:33;;;;;;;51.92;26.20;;;9.50;99.90;;;;;;6335879;22;20014;-83
2023/04/09 08:16:02;;;;;;;55.97;28.60;;;9.60;99.90;;;;;;6335459;22;20022;-82
2023/04/09 08:18:28;;;;;;;52.10;25.50;;;9.60;99.90;;;;;;6363740;22;20014;-82
2023/04/09 08:20:55;;;;;;;49.88;26.20;;;9.70;99.90;;;;;;6335458;22;20023;-81
2023/04/09 08:23:21;;;;;;;50.92;26.52;;;9.60;99.90;;;;;;6364004;22;20029;-83
2023/04/09 08:25:47;;;;;;;52.17;27.13;;;9.70;99.90;;;;;;6336072;22;20018;-82
2023/04/09 08:28:12;;;;;;;51.03;26.77;;;9.80;99.90;;;;;;6309974;22;20018;-83
2023/04/09 08:30:38;;;;;;;47.42;24.48;;;9.90;99.90;;;;;;6335950;22;20026;-83
2023/04/09 08:33:04;;;;;;;48.08;25.77;;;10.00;99.90;;;;;;6364328;22;20010;-83
2023/04/09 08:35:30;;;;;;;47.20;24.60;;;10.00;99.90;;;;;;6363818;22;20040;-82
2023/04/09 08:37:56;;;;;;;54.55;26.55;;;10.10;99.90;;;;;;6364168;22;20463;-83
2023/04/09 08:40:22;;;;;;;51.63;26.02;;;10.20;99.90;;;;;;6335866;22;20753;-83
2023/04/09 08:42:56;;;;;;;47.15;23.27;;;10.30;99.90;;;;;;6364024;22;20018;-83
2023/04/09 08:45:22;;;;;;;50.97;23.08;;;10.20;99.90;;;;;;6363663;22;20141;-82
2023/04/09 08:47:50;;;;;;;49.80;25.30;;;10.30;99.90;;;;;;6363441;22;20019;-83
2023/04/09 08:50:16;;;;;;;48.70;23.92;;;10.30;99.90;;;;;;6335662;22;20439;-82
2023/04/09 08:52:44;;;;;;;46.35;23.55;;;10.40;99.90;;;;;;6336097;22;20022;-83
2023/04/09 08:55:11;;;;;;;45.15;23.45;;;10.40;99.90;;;;;;6336488;22;20106;-82
2023/04/09 08:57:40;;;;;;;48.58;24.30;;;10.60;99.90;;;;;;6363528;22;20138;-82
2023/04/09 09:00:07;;;;;;;49.83;23.85;;;10.60;99.90;;;;;;6364009;22;20014;-82
2023/04/09 09:02:33;;;;;;;48.58;23.73;;;10.70;99.90;;;;;;6335316;22;20746;-84
2023/04/09 09:05:01;;;;;;;53.58;26.30;;;10.70;99.90;;;;;;6363559;22;20019;-83
2023/04/09 09:07:28;;;;;;;50.92;23.80;;;10.70;99.90;;;;;;6363433;22;20014;-83
2023/04/09 09:09:59;;;;;;;47.47;23.65;;;10.80;99.90;;;;;;6335886;22;20014;-82
2023/04/09 09:12:33;;;;;;;47.72;22.40;;;10.80;99.90;;;;;;6364059;22;20010;-83
2023/04/09 09:14:59;;;;;;;47.40;24.08;;;10.80;99.90;;;;;;6335975;22;20044;-82
2023/04/09 09:17:25;;;;;;;47.92;23.95;;;10.90;99.90;;;;;;6335464;22;20022;-82
2023/04/09 09:19:51;;;;;;;41.92;22.88;;;11.00;99.90;;;;;;6337019;22;20031;-83
2023/04/09 09:22:16;;;;;;;50.83;23.13;;;11.10;99.90;;;;;;6365893;22;20117;-83
2023/04/09 09:24:50;;;;;;;46.80;23.88;;;11.10;99.90;;;;;;6365204;22;20044;-84
2023/04/09 09:27:35;;;;;;;48.90;23.27;;;11.20;99.90;;;;;;6336730;22;20089;-83
2023/04/09 09:30:04;;;;;;;46.50;23.60;;;11.20;99.90;;;;;;6364729;22;20404;-85
2023/04/09 09:32:33;;;;;;;45.45;23.52;;;11.20;99.90;;;;;;6310514;22;20018;-83
2023/04/09 09:35:04;;;;;;;46.55;23.25;;;11.40;99.90;;;;;;6364674;22;20015;-83
2023/04/09 09:37:30;;;;;;;38.90;22.23;;;11.30;99.90;;;;;;6364868;22;20017;-84
2023/04/09 09:39:57;;;;;;;45.53;23.65;;;11.40;99.90;;;;;;6364102;22;20014;-84
2023/04/09 09:42:23;;;;;;;47.38;23.83;;;11.50;99.90;;;;;;6337193;22;20615;-84
2023/04/09 09:44:50;;;;;;;45.05;23.35;;;11.40;99.90;;;;;;6310264;22;20054;-85
2023/04/09 09:47:18;;;;;;;39.22;21.13;;;11.50;99.90;;;;;;6330484;22;20022;-84
2023/04/09 09:49:46;;;;;;;40.42;20.40;;;11.70;99.90;;;;;;6333235;22;20552;-83
2023/04/09 09:52:12;;;;;;;42.92;21.73;;;11.70;99.90;;;;;;6333034;22;20027;-83
2023/04/09 09:54:41;;;;;;;51.15;24.88;;;11.60;99.90;;;;;;6331322;22;20023;-83
2023/04/09 09:57:13;;;;;;;44.47;23.30;;;11.60;99.90;;;;;;6330974;22;20030;-83
2023/04/09 09:59:51;;;;;;;44.97;22.95;;;11.70;99.90;;;;;;6331200;22;20025;-83
2023/04/09 10:02:22;;;;;;;44.80;23.00;;;11.70;99.90;;;;;;6331049;22;20011;-83
2023/04/09 10:04:52;;;;;;;44.33;21.88;;;11.80;99.90;;;;;;6331380;22;20022;-82
2023/04/09 10:07:20;;;;;;;41.53;22.15;;;11.80;99.90;;;;;;6331570;22;20022;-82
2023/04/09 10:09:50;;;;;;;40.90;21.52;;;11.90;99.90;;;;;;6333063;22;20020;-83
2023/04/09 10:12:16;;;;;;;39.67;20.75;;;11.90;99.90;;;;;;6332705;22;20021;-83
2023/04/09 10:14:43;;;;;;;41.83;21.35;;;11.90;99.90;;;;;;6332746;22;20096;-84
2023/04/09 10:17:09;;;;;;;36.83;20.60;;;12.00;99.90;;;;;;6334177;22;20052;-83
2023/04/09 10:19:41;;;;;;;37.80;21.48;;;12.20;99.90;;;;;;6332208;22;20052;-84
2023/04/09 10:22:15;;;;;;;37.63;21.00;;;12.30;99.90;;;;;;6332370;22;20022;-83
2023/04/09 10:24:41;;;;;;;34.28;18.90;;;12.30;99.90;;;;;;6333478;22;20423;-84
2023/04/09 10:27:11;;;;;;;34.03;19.13;;;12.40;99.90;;;;;;6333604;22;20055;-84
2023/04/09 10:29:45;;;;;;;35.15;17.52;;;12.40;99.90;;;;;;6333662;22;20019;-84
2023/04/09 10:32:11;;;;;;;33.45;18.38;;;12.40;99.90;;;;;;6332879;22;20014;-83
2023/04/09 10:34:40;;;;;;;31.30;17.55;;;12.40;99.90;;;;;;6332458;22;20405;-85
2023/04/09 10:37:10;;;;;;;33.20;17.70;;;12.30;99.90;;;;;;6332154;22;20010;-84
2023/04/09 10:39:46;;;;;;;34.67;18.52;;;12.30;99.90;;;;;;6332869;22;20388;-84
2023/04/09 10:42:15;;;;;;;31.52;17.95;;;12.30;99.90;;;;;;6334537;22;20015;-83
2023/04/09 10:44:41;;;;;;;34.38;18.02;;;12.40;99.90;;;;;;6333838;22;20085;-84
2023/04/09 10:47:08;;;;;;;31.52;16.80;;;12.40;99.90;;;;;;6340057;22;20019;-83
2023/04/09 10:49:39;;;;;;;28.10;15.93;;;12.70;99.90;;;;;;6338497;22;20202;-85
2023/04/09 10:52:10;;;;;;;24.63;14.43;;;12.70;99.90;;;;;;6337527;22;20070;-84
2023/04/09 10:54:38;;;;;;;25.13;15.20;;;12.70;99.90;;;;;;6366148;22;20155;-84
2023/04/09 10:57:06;;;;;;;30.63;15.55;;;12.70;99.90;;;;;;6337441;22;20471;-83
2023/04/09 10:59:33;;;;;;;25.58;15.88;;;12.90;99.90;;;;;;6337406;22;20045;-84
2023/04/09 11:01:59;;;;;;;28.92;16.67;;;13.00;99.90;;;;;;6337096;22;20014;-82
2023/04/09 11:04:50;;;;;;;29.13;15.93;;;13.00;99.90;;;;;;6365936;22;20082;-83
2023/04/09 11:07:17;;;;;;;30.10;15.52;;;12.80;99.90;;;;;;6274729;22;20057;-84
2023/04/09 11:09:43;;;;;;;28.77;15.57;;;12.90;99.90;;;;;;6365959;22;20021;-84
2023/04/09 11:12:10;;;;;;;28.48;15.85;;;13.20;99.90;;;;;;6365749;22;20381;-84
2023/04/09 11:14:36;;;;;;;27.17;15.10;;;13.20;99.90;;;;;;6365970;22;20018;-84
2023/04/09 11:17:05;;;;;;;29.13;15.73;;;13.10;99.90;;;;;;6338331;22;20401;-84
2023/04/09 11:19:33;;;;;;;28.75;16.38;;;12.90;99.90;;;;;;6366128;22;20384;-84
2023/04/09 11:21:59;;;;;;;30.92;18.13;;;12.90;99.90;;;;;;6337847;22;20349;-84
2023/04/09 11:24:24;;;;;;;31.50;17.70;;;12.80;99.90;;;;;;6338492;22;20014;-82
2023/04/09 11:26:50;;;;;;;32.50;18.88;;;12.70;99.90;;;;;;6337649;22;20018;-83
2023/04/09 11:29:16;;;;;;;32.22;17.08;;;12.70;99.90;;;;;;6365603;22;20019;-83
2023/04/09 11:31:45;;;;;;;32.47;16.35;;;12.70;99.90;;;;;;6337605;22;20090;-83
2023/04/09 11:34:11;;;;;;;32.53;18.05;;;12.70;99.90;;;;;;6365969;22;20353;-83
2023/04/09 11:36:37;;;;;;;32.08;17.00;;;12.80;99.90;;;;;;6365469;22;20018;-83
2023/04/09 11:39:04;;;;;;;31.85;17.98;;;12.90;99.90;;;;;;6336931;22;20022;-83
2023/04/09 11:41:37;;;;;;;30.80;16.13;;;12.90;99.90;;;;;;6337447;22;20029;-83
2023/04/09 11:44:03;;;;;;;31.02;17.65;;;13.00;99.90;;;;;;6337093;22;20350;-84
2023/04/09 11:46:33;;;;;;;31.85;17.98;;;13.10;99.90;;;;;;6337421;22;20076;-83
2023/04/09 11:48:59;;;;;;;28.48;16.90;;;13.20;99.90;;;;;;6337338;22;20062;-83
2023/04/09 11:51:27;;;;;;;33.80;16.65;;;13.20;99.90;;;;;;6365420;22;20022;-82
2023/04/09 11:53:53;;;;;;;29.65;16.52;;;13.30;99.90;;;;;;6365605;22;20093;-83
2023/04/09 11:56:19;;;;;;;26.27;15.45;;;13.30;99.90;;;;;;6365769;22;20056;-82
2023/04/09 11:58:46;;;;;;;28.38;16.60;;;13.60;99.90;;;;;;6365425;22;20302;-83
2023/04/09 12:01:13;;;;;;;31.83;18.30;;;13.60;99.90;;;;;;6365114;22;20018;-82
2023/04/09 12:03:38;;;;;;;34.53;18.80;;;13.70;99.90;;;;;;6337392;22;20460;-83
2023/04/09 12:06:05;;;;;;;30.00;17.40;;;13.50;99.90;;;;;;6336869;22;20100;-83
2023/04/09 12:08:34;;;;;;;32.20;16.92;;;13.50;99.90;;;;;;6364956;22;20532;-84
2023/04/09 12:11:18;;;;;;;30.55;17.25;;;13.50;99.90;;;;;;6336758;22;20029;-83
2023/04/09 12:13:45;;;;;;;34.00;17.38;;;13.50;99.90;;;;;;6338175;22;20083;-83
2023/04/09 12:16:12;;;;;;;32.35;18.02;;;13.60;99.90;;;;;;6365353;22;20117;-83
2023/04/09 12:18:38;;;;;;;26.95;15.10;;;13.60;99.90;;;;;;6365006;22;20033;-82
2023/04/09 12:21:05;;;;;;;25.08;14.85;;;13.80;99.90;;;;;;6364570;22;20056;-83
2023/04/09 12:23:32;;;;;;;27.83;16.15;;;13.70;99.90;;;;;;6336670;22;20029;-82
2023/04/09 12:26:00;;;;;;;22.13;14.35;;;13.60;99.90;;;;;;6336659;22;20022;-82
2023/04/09 12:28:26;;;;;;;25.80;15.57;;;13.70;99.90;;;;;;6337123;22;20014;-83
2023/04/09 12:30:52;;;;;;;27.70;15.48;;;13.70;99.90;;;;;;6364661;22;20049;-82
2023/04/09 12:33:18;;;;;;;24.88;14.85;;;13.80;99.90;;;;;;6364821;22;20054;-84
2023/04/09 12:35:45;;;;;;;26.13;14.77;;;14.00;99.90;;;;;;6337021;22;20025;-84